Time;durP1;ratioP1;P1;durP2;ratioP2;P2;SDS_P1;SDS_P2;PMS_P1;PMS_P2;Temp;Humidity;BMP_temperature;BMP_pressure;BME280_temperature;BME280_humidity;BME280_pressure;Samples;Min_cycle;Max_cycle;Signal;HPM_P1;HPM_P2
2022/06/07 00:00:16;;;;;;;11.55;5.43;;;;;;;;;;5086480;28;20207;-57
2022/06/07 00:02:43;;;;;;;16.70;7.00;;;;;;;;;;5081871;28;20218;-57
2022/06/07 00:05:12;;;;;;;7.05;4.25;;;;;;;;;;5085311;28;20248;-57
2022/06/07 00:07:39;;;;;;;3.80;2.50;;;;;;;;;;5075557;28;20259;-57
2022/06/07 00:10:06;;;;;;;1.95;1.48;;;;;;;;;;5081380;28;20264;-57
2022/06/07 00:12:33;;;;;;;0.60;0.60;;;;;;;;;;5085228;28;20687;-57
2022/06/07 00:15:00;;;;;;;4.38;0.70;;;;;;;;;;5085887;28;20267;-57
2022/06/07 00:17:27;;;;;;;0.77;0.77;;;;;;;;;;5084142;28;20206;-58
2022/06/07 00:19:54;;;;;;;0.40;0.40;;;;;;;;;;5074472;28;20213;-58
2022/06/07 00:22:23;;;;;;;0.63;0.63;;;;;;;;;;5078908;28;20210;-58
2022/06/07 00:24:50;;;;;;;0.75;0.75;;;;;;;;;;5085488;28;20255;-57
2022/06/07 00:27:17;;;;;;;0.40;0.40;;;;;;;;;;5086143;28;20253;-58
2022/06/07 00:29:45;;;;;;;0.60;0.40;;;;;;;;;;5083824;28;20759;-59
2022/06/07 00:32:13;;;;;;;0.55;0.55;;;;;;;;;;5079934;28;20231;-61
2022/06/07 00:34:40;;;;;;;0.47;0.40;;;;;;;;;;5079886;28;20238;-57
2022/06/07 00:37:07;;;;;;;1.45;0.40;;;;;;;;;;5085077;28;20222;-58
2022/06/07 00:39:35;;;;;;;1.58;0.60;;;;;;;;;;5085416;28;20289;-57
2022/06/07 00:42:02;;;;;;;0.35;0.35;;;;;;;;;;5071944;28;20290;-58
2022/06/07 00:44:32;;;;;;;0.50;0.50;;;;;;;;;;5084473;28;20238;-59
2022/06/07 00:47:00;;;;;;;8.40;0.60;;;;;;;;;;5084940;28;20735;-57
2022/06/07 00:49:28;;;;;;;1.73;0.40;;;;;;;;;;5085164;28;20267;-57
2022/06/07 00:51:55;;;;;;;2.42;0.50;;;;;;;;;;5073822;28;20227;-57
2022/06/07 00:54:23;;;;;;;0.50;0.50;;;;;;;;;;5080415;28;20211;-57
2022/06/07 00:56:51;;;;;;;2.30;0.30;;;;;;;;;;5084011;28;20206;-57
2022/06/07 00:59:18;;;;;;;0.45;0.45;;;;;;;;;;5085189;28;20222;-57
2022/06/07 01:01:46;;;;;;;0.50;0.50;;;;;;;;;;5076809;28;20554;-57
2022/06/07 01:04:13;;;;;;;0.50;0.50;;;;;;;;;;5084573;28;20302;-57
2022/06/07 01:12:11;;;;;;;1.75;0.40;;;;;;;;;;5084654;28;20321;-58
2022/06/07 01:14:38;;;;;;;0.30;0.30;;;;;;;;;;5086733;28;20289;-57
2022/06/07 01:17:06;;;;;;;0.63;0.63;;;;;;;;;;5087253;28;20245;-57
2022/06/07 01:19:33;;;;;;;0.60;0.60;;;;;;;;;;5087734;28;20226;-57
2022/06/07 01:22:02;;;;;;;1.65;0.40;;;;;;;;;;5086491;28;20586;-57
2022/06/07 01:24:29;;;;;;;0.40;0.40;;;;;;;;;;5086420;28;20271;-57
2022/06/07 01:26:56;;;;;;;0.50;0.40;;;;;;;;;;5086763;28;20213;-57
2022/06/07 01:29:23;;;;;;;0.32;0.32;;;;;;;;;;5085208;28;20209;-58
2022/06/07 01:31:50;;;;;;;0.30;0.30;;;;;;;;;;5087100;28;20218;-57
2022/06/07 01:34:17;;;;;;;0.47;0.47;;;;;;;;;;5087423;28;20203;-57
2022/06/07 01:36:44;;;;;;;0.50;0.50;;;;;;;;;;5084452;28;20217;-61
2022/06/07 01:41:57;;;;;;;0.40;0.40;;;;;;;;;;5087119;28;20340;-57
2022/06/07 01:44:25;;;;;;;0.47;0.47;;;;;;;;;;5087485;28;20234;-56
2022/06/07 01:46:53;;;;;;;0.52;0.40;;;;;;;;;;5088024;28;20198;-57
2022/06/07 01:49:20;;;;;;;0.47;0.47;;;;;;;;;;5088339;28;20202;-56
2022/06/07 01:51:47;;;;;;;0.57;0.55;;;;;;;;;;5087444;28;20237;-56
2022/06/07 01:54:16;;;;;;;0.60;0.60;;;;;;;;;;5088147;28;20214;-57
2022/06/07 01:56:43;;;;;;;0.50;0.50;;;;;;;;;;5088043;28;20207;-57
2022/06/07 01:59:10;;;;;;;1.45;0.60;;;;;;;;;;5086751;28;20213;-58
2022/06/07 02:01:37;;;;;;;0.32;0.32;;;;;;;;;;5087873;28;20639;-57
2022/06/07 02:04:05;;;;;;;0.40;0.40;;;;;;;;;;5087880;28;20210;-57
2022/06/07 02:06:32;;;;;;;0.40;0.40;;;;;;;;;;5084856;28;20397;-57
2022/06/07 02:09:00;;;;;;;0.35;0.35;;;;;;;;;;5084002;28;20206;-57
2022/06/07 02:11:29;;;;;;;0.32;0.32;;;;;;;;;;5086958;28;20222;-57
2022/06/07 02:13:56;;;;;;;1.45;0.45;;;;;;;;;;5082270;28;20207;-57
2022/06/07 02:16:23;;;;;;;0.73;0.50;;;;;;;;;;5085377;28;20208;-57
2022/06/07 02:18:51;;;;;;;0.40;0.40;;;;;;;;;;5087464;28;20225;-57
2022/06/07 02:21:18;;;;;;;0.38;0.38;;;;;;;;;;5090057;28;20205;-57
2022/06/07 02:23:45;;;;;;;0.82;0.43;;;;;;;;;;5090965;28;20206;-57
2022/06/07 02:26:14;;;;;;;1.10;0.52;;;;;;;;;;5091828;28;20221;-57
2022/06/07 02:28:44;;;;;;;0.47;0.47;;;;;;;;;;5091720;28;20206;-56
2022/06/07 02:31:12;;;;;;;0.40;0.40;;;;;;;;;;5090849;28;20273;-58
2022/06/07 02:33:40;;;;;;;0.38;0.30;;;;;;;;;;5091622;28;20628;-56
2022/06/07 02:36:08;;;;;;;1.02;0.40;;;;;;;;;;5091049;28;20249;-57
2022/06/07 02:38:35;;;;;;;0.40;0.35;;;;;;;;;;5091578;28;20217;-57
2022/06/07 02:41:03;;;;;;;0.35;0.35;;;;;;;;;;5091393;28;20252;-57
2022/06/07 02:43:30;;;;;;;1.00;0.50;;;;;;;;;;5078162;28;20713;-57
2022/06/07 02:45:59;;;;;;;0.52;0.52;;;;;;;;;;5086484;28;20694;-57
2022/06/07 02:48:26;;;;;;;0.38;0.38;;;;;;;;;;5091162;28;20243;-57
2022/06/07 02:50:53;;;;;;;0.55;0.55;;;;;;;;;;5086200;28;20210;-57
2022/06/07 02:53:20;;;;;;;0.50;0.50;;;;;;;;;;5091380;28;20701;-57
2022/06/07 02:55:47;;;;;;;0.40;0.40;;;;;;;;;;5090700;28;20210;-57
2022/06/07 02:58:14;;;;;;;0.50;0.50;;;;;;;;;;5091811;28;20202;-57
2022/06/07 03:00:41;;;;;;;0.55;0.55;;;;;;;;;;5090735;28;20211;-57
2022/06/07 03:03:10;;;;;;;0.40;0.40;;;;;;;;;;5090993;28;20206;-57
2022/06/07 03:05:37;;;;;;;2.92;0.50;;;;;;;;;;5091183;28;20312;-57
2022/06/07 03:08:04;;;;;;;1.55;0.60;;;;;;;;;;5090881;28;20206;-57
2022/06/07 03:10:31;;;;;;;0.40;0.40;;;;;;;;;;5090800;28;20669;-57
2022/06/07 03:12:58;;;;;;;0.50;0.50;;;;;;;;;;5090786;28;20229;-56
2022/06/07 03:15:25;;;;;;;1.08;0.50;;;;;;;;;;5084150;28;20215;-56
2022/06/07 03:17:52;;;;;;;2.05;0.45;;;;;;;;;;5091064;28;20213;-57
2022/06/07 03:20:21;;;;;;;1.05;0.50;;;;;;;;;;5090411;28;20218;-57
2022/06/07 03:22:48;;;;;;;0.60;0.60;;;;;;;;;;5090334;28;20286;-57
2022/06/07 03:25:15;;;;;;;0.40;0.40;;;;;;;;;;5090844;28;20202;-57
2022/06/07 03:27:42;;;;;;;0.50;0.50;;;;;;;;;;5090986;28;20211;-57
2022/06/07 03:30:10;;;;;;;0.50;0.50;;;;;;;;;;5090697;28;20206;-57
2022/06/07 03:32:47;;;;;;;0.70;0.60;;;;;;;;;;5089736;28;20331;-57
2022/06/07 03:35:15;;;;;;;0.50;0.50;;;;;;;;;;5090540;28;20276;-57
2022/06/07 03:37:44;;;;;;;0.70;0.50;;;;;;;;;;5090492;28;20359;-57
2022/06/07 03:40:12;;;;;;;0.40;0.40;;;;;;;;;;5090775;28;20205;-57
2022/06/07 03:42:40;;;;;;;0.70;0.70;;;;;;;;;;5089583;28;20950;-57
2022/06/07 03:45:07;;;;;;;0.80;0.50;;;;;;;;;;5090594;28;20214;-57
2022/06/07 03:47:37;;;;;;;0.43;0.43;;;;;;;;;;5090532;28;20329;-57
2022/06/07 03:50:05;;;;;;;0.40;0.40;;;;;;;;;;5090152;28;20195;-57
2022/06/07 03:52:32;;;;;;;0.40;0.40;;;;;;;;;;5090135;28;20222;-57
2022/06/07 03:55:00;;;;;;;1.35;0.50;;;;;;;;;;5089973;28;20206;-57
2022/06/07 03:57:28;;;;;;;0.30;0.30;;;;;;;;;;5090485;28;20225;-57
2022/06/07 03:59:55;;;;;;;0.47;0.47;;;;;;;;;;5089077;28;20210;-57
2022/06/07 04:02:22;;;;;;;0.50;0.50;;;;;;;;;;5089434;28;20201;-57
2022/06/07 04:04:49;;;;;;;0.40;0.40;;;;;;;;;;5090006;28;20664;-57
2022/06/07 04:10:02;;;;;;;0.45;0.45;;;;;;;;;;5090434;28;20301;-57
2022/06/07 04:12:29;;;;;;;2.05;0.40;;;;;;;;;;5081545;28;20223;-57
2022/06/07 04:14:56;;;;;;;1.38;0.55;;;;;;;;;;5089903;28;20632;-56
2022/06/07 04:17:23;;;;;;;0.63;0.50;;;;;;;;;;5090381;28;20211;-57
2022/06/07 04:19:50;;;;;;;0.55;0.50;;;;;;;;;;5089189;28;20202;-56
2022/06/07 04:22:18;;;;;;;1.23;0.50;;;;;;;;;;5089382;28;20326;-57
2022/06/07 04:24:46;;;;;;;0.40;0.40;;;;;;;;;;5089739;28;20618;-56
2022/06/07 04:27:14;;;;;;;0.40;0.40;;;;;;;;;;5089195;28;20272;-57
2022/06/07 04:29:45;;;;;;;0.75;0.50;;;;;;;;;;5089470;28;20332;-57
2022/06/07 04:32:12;;;;;;;0.50;0.50;;;;;;;;;;5089216;28;20297;-56
2022/06/07 04:34:39;;;;;;;0.40;0.40;;;;;;;;;;5089526;28;20692;-56
2022/06/07 04:37:06;;;;;;;1.00;0.35;;;;;;;;;;5089556;28;20233;-56
2022/06/07 04:39:33;;;;;;;0.50;0.50;;;;;;;;;;5089905;28;20278;-56
2022/06/07 04:42:00;;;;;;;0.50;0.50;;;;;;;;;;5088562;28;20202;-57
2022/06/07 04:44:30;;;;;;;0.50;0.50;;;;;;;;;;5082267;28;20248;-55
2022/06/07 04:46:57;;;;;;;0.60;0.60;;;;;;;;;;5089488;28;20213;-55
2022/06/07 04:49:24;;;;;;;0.70;0.60;;;;;;;;;;5089449;28;20206;-55
2022/06/07 04:51:51;;;;;;;0.50;0.50;;;;;;;;;;5089027;28;20226;-55
2022/06/07 04:54:18;;;;;;;0.45;0.45;;;;;;;;;;5088996;28;20218;-56
2022/06/07 04:56:45;;;;;;;0.40;0.40;;;;;;;;;;5089351;28;20218;-56
2022/06/07 04:59:13;;;;;;;0.40;0.40;;;;;;;;;;5088802;28;20260;-55
2022/06/07 05:01:43;;;;;;;0.50;0.50;;;;;;;;;;5088973;28;20690;-56
2022/06/07 05:04:11;;;;;;;1.98;0.70;;;;;;;;;;5088667;28;20202;-56
2022/06/07 05:06:39;;;;;;;0.98;0.47;;;;;;;;;;5088998;28;20210;-56
2022/06/07 05:09:08;;;;;;;0.50;0.50;;;;;;;;;;5089043;28;20226;-57
2022/06/07 05:11:35;;;;;;;2.58;0.60;;;;;;;;;;5088849;28;20202;-56
2022/06/07 05:14:03;;;;;;;0.45;0.45;;;;;;;;;;5088360;28;20217;-59
2022/06/07 05:16:30;;;;;;;0.40;0.40;;;;;;;;;;5088361;28;20199;-58
2022/06/07 05:18:58;;;;;;;0.47;0.47;;;;;;;;;;5088797;28;20268;-57
2022/06/07 05:21:29;;;;;;;0.50;0.50;;;;;;;;;;5089066;28;20198;-55
2022/06/07 05:23:56;;;;;;;1.65;0.50;;;;;;;;;;5088695;28;20222;-55
2022/06/07 05:26:25;;;;;;;1.00;0.63;;;;;;;;;;5088493;28;20206;-55
2022/06/07 05:28:52;;;;;;;0.60;0.60;;;;;;;;;;5088341;28;20636;-55
2022/06/07 05:31:19;;;;;;;0.95;0.50;;;;;;;;;;5088893;28;20731;-55
2022/06/07 05:33:46;;;;;;;0.40;0.40;;;;;;;;;;5087867;28;20225;-55
2022/06/07 05:36:15;;;;;;;0.43;0.43;;;;;;;;;;5088379;28;20708;-56
2022/06/07 05:38:42;;;;;;;0.52;0.52;;;;;;;;;;5088793;28;20214;-56
2022/06/07 05:41:10;;;;;;;0.50;0.50;;;;;;;;;;5088207;28;20206;-56
2022/06/07 05:43:37;;;;;;;0.63;0.60;;;;;;;;;;5088321;28;20254;-57
2022/06/07 05:46:05;;;;;;;0.50;0.50;;;;;;;;;;5088383;28;20301;-57
2022/06/07 05:48:33;;;;;;;2.40;0.60;;;;;;;;;;5088168;28;20656;-57
2022/06/07 05:51:00;;;;;;;0.90;0.50;;;;;;;;;;5086224;28;20751;-57
2022/06/07 05:53:29;;;;;;;0.50;0.50;;;;;;;;;;5087879;28;20237;-55
2022/06/07 05:55:56;;;;;;;0.45;0.45;;;;;;;;;;5085712;28;20202;-56
2022/06/07 05:58:25;;;;;;;0.40;0.40;;;;;;;;;;5084703;28;20202;-56
2022/06/07 06:00:52;;;;;;;0.40;0.40;;;;;;;;;;5087923;28;20198;-57
2022/06/07 06:03:19;;;;;;;0.55;0.40;;;;;;;;;;5087601;28;20198;-57
2022/06/07 06:05:46;;;;;;;0.40;0.40;;;;;;;;;;5087569;28;20210;-57
2022/06/07 06:11:10;;;;;;;0.88;0.55;;;;;;;;;;5088017;28;20205;-57
2022/06/07 06:13:38;;;;;;;0.50;0.50;;;;;;;;;;5087860;28;20232;-57
2022/06/07 06:16:05;;;;;;;0.40;0.40;;;;;;;;;;5087409;28;20217;-57
2022/06/07 06:18:33;;;;;;;0.60;0.60;;;;;;;;;;5088421;28;20229;-58
2022/06/07 06:21:00;;;;;;;1.45;0.30;;;;;;;;;;5087730;28;20225;-57
2022/06/07 06:23:27;;;;;;;0.77;0.70;;;;;;;;;;5087859;28;20202;-57
2022/06/07 06:25:54;;;;;;;0.57;0.57;;;;;;;;;;5087635;28;20624;-58
2022/06/07 06:28:22;;;;;;;1.55;0.50;;;;;;;;;;5088331;28;20696;-60
2022/06/07 06:30:50;;;;;;;0.57;0.57;;;;;;;;;;5088181;28;20218;-59
2022/06/07 06:33:18;;;;;;;0.60;0.60;;;;;;;;;;5085469;28;20218;-57
2022/06/07 06:35:51;;;;;;;1.05;0.73;;;;;;;;;;5079836;28;20258;-57
2022/06/07 06:38:18;;;;;;;0.50;0.50;;;;;;;;;;5087328;28;20899;-57
2022/06/07 06:40:45;;;;;;;0.50;0.50;;;;;;;;;;5087140;28;20210;-57
2022/06/07 06:43:12;;;;;;;4.10;2.72;;;;;;;;;;5086574;28;20303;-57
2022/06/07 06:45:41;;;;;;;5.60;3.08;;;;;;;;;;5087317;28;20211;-58
2022/06/07 06:48:09;;;;;;;1.88;1.75;;;;;;;;;;5087247;28;20215;-57
2022/06/07 06:50:36;;;;;;;3.00;1.48;;;;;;;;;;5087647;28;20251;-58
2022/06/07 06:53:03;;;;;;;1.08;0.57;;;;;;;;;;5086633;28;20228;-57
2022/06/07 06:55:31;;;;;;;0.90;0.50;;;;;;;;;;5086576;28;20213;-58
2022/06/07 06:57:58;;;;;;;0.52;0.52;;;;;;;;;;5087544;28;20207;-58
2022/06/07 07:00:27;;;;;;;0.77;0.52;;;;;;;;;;5087399;28;20244;-58
2022/06/07 07:02:56;;;;;;;2.00;0.60;;;;;;;;;;5087516;28;20202;-60
2022/06/07 07:05:23;;;;;;;0.40;0.40;;;;;;;;;;5087086;28;20206;-58
2022/06/07 07:07:50;;;;;;;1.05;0.50;;;;;;;;;;5088563;28;20260;-57
2022/06/07 07:10:17;;;;;;;0.50;0.50;;;;;;;;;;5090552;28;20650;-56
2022/06/07 07:12:44;;;;;;;0.63;0.50;;;;;;;;;;5090351;28;20231;-57
2022/06/07 07:15:13;;;;;;;0.43;0.43;;;;;;;;;;5090628;28;20210;-58
2022/06/07 07:17:40;;;;;;;0.50;0.50;;;;;;;;;;5082635;28;20290;-56
2022/06/07 07:20:09;;;;;;;0.55;0.55;;;;;;;;;;5089140;28;20433;-56
2022/06/07 07:22:36;;;;;;;3.20;0.52;;;;;;;;;;5090154;28;20560;-57
2022/06/07 07:25:04;;;;;;;0.95;0.50;;;;;;;;;;5090407;28;20297;-57
2022/06/07 07:27:31;;;;;;;1.85;0.50;;;;;;;;;;5090316;28;20640;-58
2022/06/07 07:29:59;;;;;;;0.63;0.63;;;;;;;;;;5090173;28;20206;-56
2022/06/07 07:32:26;;;;;;;0.50;0.50;;;;;;;;;;5089719;28;20698;-57
2022/06/07 07:34:54;;;;;;;0.30;0.30;;;;;;;;;;5089280;28;20314;-58
2022/06/07 07:37:23;;;;;;;1.38;0.60;;;;;;;;;;5089567;28;20237;-57
2022/06/07 07:39:50;;;;;;;0.50;0.50;;;;;;;;;;5090079;28;20202;-57
2022/06/07 07:42:18;;;;;;;0.38;0.32;;;;;;;;;;5090098;28;20202;-58
2022/06/07 07:44:45;;;;;;;0.50;0.50;;;;;;;;;;5078307;28;20216;-57
2022/06/07 07:47:12;;;;;;;0.50;0.50;;;;;;;;;;5078012;28;20207;-58
2022/06/07 07:49:39;;;;;;;0.52;0.52;;;;;;;;;;5089329;28;20209;-58
2022/06/07 07:52:06;;;;;;;0.55;0.50;;;;;;;;;;5088291;28;20628;-58
2022/06/07 07:54:34;;;;;;;0.40;0.40;;;;;;;;;;5089680;28;20279;-59
2022/06/07 07:57:02;;;;;;;0.50;0.50;;;;;;;;;;5090661;28;20240;-59
2022/06/07 07:59:29;;;;;;;0.38;0.38;;;;;;;;;;5090273;28;20202;-59
2022/06/07 08:01:56;;;;;;;0.28;0.28;;;;;;;;;;5090235;28;20209;-59
2022/06/07 08:04:24;;;;;;;0.60;0.60;;;;;;;;;;5089276;28;20195;-60
2022/06/07 08:06:51;;;;;;;0.30;0.30;;;;;;;;;;5089943;28;20293;-59
2022/06/07 08:09:20;;;;;;;0.38;0.30;;;;;;;;;;5090207;28;20202;-59
2022/06/07 08:11:49;;;;;;;0.30;0.30;;;;;;;;;;5088773;28;20214;-62
2022/06/07 08:14:18;;;;;;;0.52;0.50;;;;;;;;;;5089127;28;20343;-59
2022/06/07 08:16:45;;;;;;;0.20;0.20;;;;;;;;;;5089395;28;20206;-59
2022/06/07 08:19:12;;;;;;;0.30;0.30;;;;;;;;;;5090207;28;20884;-58
2022/06/07 08:21:40;;;;;;;0.50;0.50;;;;;;;;;;5089450;28;20667;-58
2022/06/07 08:24:08;;;;;;;0.50;0.50;;;;;;;;;;5074753;28;20391;-58
2022/06/07 08:26:35;;;;;;;0.75;0.43;;;;;;;;;;5090427;28;20210;-58
2022/06/07 08:29:04;;;;;;;0.40;0.32;;;;;;;;;;5089322;28;20214;-58
2022/06/07 08:31:32;;;;;;;0.50;0.50;;;;;;;;;;5088273;28;20297;-58
2022/06/07 08:39:29;;;;;;;0.40;0.40;;;;;;;;;;5087594;28;20339;-58
2022/06/07 08:41:57;;;;;;;1.27;0.50;;;;;;;;;;5087835;28;20229;-58
2022/06/07 08:44:27;;;;;;;1.05;0.50;;;;;;;;;;5087227;28;21176;-59
2022/06/07 08:46:57;;;;;;;0.40;0.40;;;;;;;;;;5086413;28;20778;-58
2022/06/07 08:49:24;;;;;;;0.40;0.40;;;;;;;;;;5086158;28;20209;-58
2022/06/07 08:51:53;;;;;;;0.40;0.40;;;;;;;;;;5087574;28;20206;-58
2022/06/07 08:54:23;;;;;;;0.32;0.32;;;;;;;;;;5087200;28;20218;-58
2022/06/07 08:56:52;;;;;;;0.40;0.40;;;;;;;;;;5087834;28;20207;-58
2022/06/07 08:59:21;;;;;;;0.90;0.43;;;;;;;;;;5085426;28;20230;-58
2022/06/07 09:01:53;;;;;;;0.45;0.40;;;;;;;;;;5087190;28;20214;-58
2022/06/07 09:04:22;;;;;;;0.57;0.43;;;;;;;;;;5087174;28;20689;-58
2022/06/07 09:06:50;;;;;;;0.60;0.60;;;;;;;;;;5085911;28;20293;-58
2022/06/07 09:09:18;;;;;;;0.30;0.30;;;;;;;;;;5087270;28;20264;-58
2022/06/07 09:14:34;;;;;;;0.40;0.40;;;;;;;;;;5086418;28;20748;-58
2022/06/07 09:17:05;;;;;;;0.50;0.40;;;;;;;;;;5087685;28;20205;-58
2022/06/07 09:19:33;;;;;;;0.40;0.40;;;;;;;;;;5085538;28;20210;-58
2022/06/07 09:22:02;;;;;;;3.50;0.40;;;;;;;;;;5086936;28;20363;-58
2022/06/07 09:24:32;;;;;;;0.50;0.50;;;;;;;;;;5088486;28;20226;-58
2022/06/07 09:27:05;;;;;;;1.25;0.40;;;;;;;;;;5083579;28;20672;-58
2022/06/07 09:29:35;;;;;;;1.20;0.50;;;;;;;;;;5085287;28;20211;-57
2022/06/07 09:32:09;;;;;;;1.02;0.30;;;;;;;;;;5079514;28;20580;-60
2022/06/07 09:34:37;;;;;;;2.45;0.55;;;;;;;;;;5087057;28;20280;-59
2022/06/07 09:37:06;;;;;;;1.20;0.30;;;;;;;;;;5088010;28;20218;-56
2022/06/07 09:39:36;;;;;;;1.38;0.40;;;;;;;;;;5088686;28;20213;-57
2022/06/07 09:42:09;;;;;;;0.30;0.30;;;;;;;;;;5077254;28;20228;-61
2022/06/07 09:44:38;;;;;;;0.50;0.50;;;;;;;;;;5079403;28;20221;-57
2022/06/07 09:47:12;;;;;;;1.08;0.20;;;;;;;;;;5087690;28;20271;-57
2022/06/07 09:49:41;;;;;;;0.47;0.40;;;;;;;;;;5087897;28;20676;-57
2022/06/07 09:52:13;;;;;;;0.50;0.50;;;;;;;;;;5086848;28;20625;-57
2022/06/07 09:54:44;;;;;;;0.38;0.38;;;;;;;;;;5085839;28;20720;-56
2022/06/07 09:57:17;;;;;;;0.30;0.30;;;;;;;;;;5086620;28;20268;-57
2022/06/07 09:59:47;;;;;;;1.00;0.68;;;;;;;;;;5084063;28;20241;-57
2022/06/07 10:02:24;;;;;;;0.20;0.20;;;;;;;;;;5087409;28;20194;-58
2022/06/07 10:04:58;;;;;;;0.55;0.50;;;;;;;;;;5085879;28;20202;-58
2022/06/07 10:07:30;;;;;;;0.50;0.45;;;;;;;;;;5085179;28;20668;-58
2022/06/07 10:10:03;;;;;;;1.08;0.30;;;;;;;;;;5086774;28;20226;-58
2022/06/07 10:12:34;;;;;;;0.35;0.35;;;;;;;;;;5086734;28;20264;-57
2022/06/07 10:15:10;;;;;;;0.30;0.30;;;;;;;;;;5080297;28;20249;-55
2022/06/07 10:17:55;;;;;;;0.95;0.50;;;;;;;;;;5071894;28;20212;-56
2022/06/07 10:20:29;;;;;;;0.55;0.40;;;;;;;;;;5086635;28;20210;-56
2022/06/07 10:23:05;;;;;;;0.32;0.32;;;;;;;;;;5086015;28;20214;-56
2022/06/07 10:25:37;;;;;;;0.30;0.30;;;;;;;;;;5082638;28;20198;-59
2022/06/07 10:28:08;;;;;;;1.45;0.30;;;;;;;;;;5083883;28;20194;-58
2022/06/07 10:30:39;;;;;;;1.17;0.40;;;;;;;;;;5087629;28;20598;-59
2022/06/07 10:33:13;;;;;;;0.30;0.30;;;;;;;;;;5087500;28;20229;-58
2022/06/07 10:35:45;;;;;;;0.60;0.40;;;;;;;;;;5087518;28;20636;-58
2022/06/07 10:38:17;;;;;;;0.65;0.40;;;;;;;;;;5087329;28;20210;-58
2022/06/07 10:40:48;;;;;;;0.60;0.60;;;;;;;;;;5087508;28;20210;-58
2022/06/07 10:43:18;;;;;;;0.88;0.50;;;;;;;;;;5089817;28;20238;-58
2022/06/07 10:45:46;;;;;;;0.40;0.40;;;;;;;;;;5090755;28;20210;-59
2022/06/07 10:48:16;;;;;;;0.45;0.40;;;;;;;;;;5091268;28;20206;-65
2022/06/07 10:50:47;;;;;;;0.40;0.40;;;;;;;;;;5090480;28;20494;-58
2022/06/07 10:53:16;;;;;;;2.75;0.60;;;;;;;;;;5085254;28;20503;-58
2022/06/07 10:55:45;;;;;;;0.90;0.50;;;;;;;;;;5085936;28;20337;-59
2022/06/07 10:58:24;;;;;;;0.85;0.50;;;;;;;;;;5083342;28;20215;-60
2022/06/07 11:00:53;;;;;;;1.13;0.60;;;;;;;;;;5076022;28;20225;-57
2022/06/07 11:03:26;;;;;;;1.08;0.43;;;;;;;;;;5085935;28;20202;-57
2022/06/07 11:11:29;;;;;;;0.65;0.57;;;;;;;;;;5078283;28;20209;-57
2022/06/07 11:14:06;;;;;;;0.70;0.45;;;;;;;;;;5080380;28;20228;-57
2022/06/07 11:16:37;;;;;;;0.75;0.43;;;;;;;;;;5071846;28;20202;-57
2022/06/07 11:19:05;;;;;;;2.30;0.43;;;;;;;;;;5085337;28;20209;-57
2022/06/07 11:21:34;;;;;;;1.55;0.55;;;;;;;;;;5084997;28;20210;-61
2022/06/07 11:24:06;;;;;;;0.40;0.40;;;;;;;;;;5085862;28;20289;-59
2022/06/07 11:27:00;;;;;;;0.50;0.50;;;;;;;;;;5085517;28;20267;-59
2022/06/07 11:29:29;;;;;;;0.75;0.47;;;;;;;;;;5084908;28;20623;-60
2022/06/07 11:31:57;;;;;;;0.68;0.63;;;;;;;;;;5085645;28;20489;-59
2022/06/07 11:34:25;;;;;;;0.60;0.60;;;;;;;;;;5083270;28;20283;-60
2022/06/07 11:36:53;;;;;;;1.27;0.50;;;;;;;;;;5084852;28;20253;-58
2022/06/07 11:39:27;;;;;;;0.38;0.35;;;;;;;;;;5085889;28;20202;-58
2022/06/07 11:41:55;;;;;;;0.50;0.50;;;;;;;;;;5085429;28;20206;-58
2022/06/07 11:44:59;;;;;;;0.50;0.50;;;;;;;;;;5081469;28;20740;-59
2022/06/07 11:47:33;;;;;;;1.45;0.50;;;;;;;;;;5085490;28;20217;-58
2022/06/07 11:50:01;;;;;;;1.35;0.43;;;;;;;;;;5086057;28;20237;-58
2022/06/07 11:52:29;;;;;;;0.63;0.50;;;;;;;;;;5085658;28;20202;-58
2022/06/07 11:54:57;;;;;;;0.73;0.50;;;;;;;;;;5085591;28;20226;-57
2022/06/07 11:57:28;;;;;;;1.67;0.50;;;;;;;;;;5085779;28;20214;-60
2022/06/07 11:59:58;;;;;;;0.35;0.32;;;;;;;;;;5083991;28;20214;-58
2022/06/07 12:02:27;;;;;;;0.40;0.40;;;;;;;;;;5083336;28;20569;-58
2022/06/07 12:04:57;;;;;;;1.55;0.40;;;;;;;;;;5085160;28;20199;-58
2022/06/07 12:07:28;;;;;;;1.20;0.40;;;;;;;;;;5085890;28;20214;-59
2022/06/07 12:09:56;;;;;;;0.47;0.47;;;;;;;;;;5085570;28;20272;-59
2022/06/07 12:12:28;;;;;;;0.32;0.32;;;;;;;;;;5085616;28;20213;-59
2022/06/07 12:15:03;;;;;;;0.30;0.30;;;;;;;;;;5085414;28;20232;-59
2022/06/07 12:17:30;;;;;;;0.38;0.32;;;;;;;;;;5084126;28;20508;-59
2022/06/07 12:19:58;;;;;;;0.40;0.28;;;;;;;;;;5084890;28;20208;-59
2022/06/07 12:22:26;;;;;;;0.20;0.20;;;;;;;;;;5084507;28;20210;-58
2022/06/07 12:24:58;;;;;;;0.35;0.30;;;;;;;;;;5083783;28;20206;-58
2022/06/07 12:27:27;;;;;;;0.40;0.30;;;;;;;;;;5084338;28;20210;-58
2022/06/07 12:29:55;;;;;;;0.30;0.30;;;;;;;;;;5083602;28;20288;-58
2022/06/07 12:32:28;;;;;;;0.40;0.40;;;;;;;;;;5084398;28;20211;-58
2022/06/07 12:35:23;;;;;;;2.50;0.47;;;;;;;;;;5083318;28;20226;-58
2022/06/07 12:37:52;;;;;;;1.65;0.50;;;;;;;;;;5047523;28;20766;-58
2022/06/07 12:40:24;;;;;;;0.30;0.30;;;;;;;;;;5083522;28;20672;-59
2022/06/07 12:42:51;;;;;;;0.47;0.43;;;;;;;;;;5082854;28;20311;-58
2022/06/07 12:45:23;;;;;;;0.73;0.30;;;;;;;;;;5078673;28;20655;-58
2022/06/07 12:47:56;;;;;;;1.20;0.38;;;;;;;;;;5084025;28;20225;-59
2022/06/07 12:50:29;;;;;;;0.47;0.47;;;;;;;;;;5084157;28;20210;-58
2022/06/07 12:52:57;;;;;;;0.55;0.40;;;;;;;;;;5084342;28;20213;-58
2022/06/07 12:55:25;;;;;;;0.30;0.30;;;;;;;;;;5083967;28;20230;-58
2022/06/07 12:57:54;;;;;;;0.50;0.50;;;;;;;;;;5084447;28;20214;-58
2022/06/07 13:00:22;;;;;;;0.73;0.47;;;;;;;;;;5084013;28;20201;-59
2022/06/07 13:02:51;;;;;;;0.35;0.28;;;;;;;;;;5084536;28;20233;-59
2022/06/07 13:05:21;;;;;;;0.40;0.40;;;;;;;;;;5083212;28;20668;-58
2022/06/07 13:07:49;;;;;;;0.52;0.40;;;;;;;;;;5084404;28;20225;-59
2022/06/07 13:10:17;;;;;;;0.38;0.38;;;;;;;;;;5084174;28;20210;-58
2022/06/07 13:12:46;;;;;;;0.40;0.40;;;;;;;;;;5084171;28;20213;-58
2022/06/07 13:15:15;;;;;;;0.38;0.38;;;;;;;;;;5084083;28;20240;-59
2022/06/07 13:17:52;;;;;;;0.40;0.40;;;;;;;;;;5083971;28;20289;-59
2022/06/07 13:20:26;;;;;;;0.50;0.50;;;;;;;;;;5074742;28;20223;-58
2022/06/07 13:22:53;;;;;;;0.47;0.47;;;;;;;;;;5082291;28;20222;-58
2022/06/07 13:25:21;;;;;;;0.30;0.30;;;;;;;;;;5083940;28;20961;-59
2022/06/07 13:27:51;;;;;;;0.40;0.40;;;;;;;;;;5083107;28;20206;-59
2022/06/07 13:30:28;;;;;;;0.30;0.30;;;;;;;;;;5083078;28;20704;-58
2022/06/07 13:33:03;;;;;;;0.30;0.30;;;;;;;;;;5063127;28;20215;-59
2022/06/07 13:35:40;;;;;;;0.30;0.30;;;;;;;;;;5081605;28;20634;-59
2022/06/07 13:38:20;;;;;;;0.85;0.55;;;;;;;;;;5082472;28;20210;-59
2022/06/07 13:40:47;;;;;;;0.50;0.50;;;;;;;;;;5082783;28;20209;-59
2022/06/07 13:43:17;;;;;;;0.30;0.30;;;;;;;;;;5082991;28;20319;-59
2022/06/07 13:45:45;;;;;;;1.85;0.50;;;;;;;;;;5083540;28;20230;-59
2022/06/07 13:48:17;;;;;;;0.40;0.40;;;;;;;;;;5083093;28;20214;-59
2022/06/07 13:53:46;;;;;;;0.40;0.40;;;;;;;;;;5084114;28;20627;-59
2022/06/07 13:56:15;;;;;;;0.30;0.30;;;;;;;;;;5083577;28;20241;-58
2022/06/07 13:58:43;;;;;;;0.40;0.40;;;;;;;;;;5083781;28;20210;-59
2022/06/07 14:01:15;;;;;;;0.50;0.50;;;;;;;;;;5083211;28;20584;-59
2022/06/07 14:03:45;;;;;;;0.40;0.40;;;;;;;;;;5083242;28;20310;-59
2022/06/07 14:06:21;;;;;;;0.60;0.60;;;;;;;;;;5082828;28;20210;-59
2022/06/07 14:08:48;;;;;;;1.13;0.50;;;;;;;;;;5082680;28;20218;-59
2022/06/07 14:11:15;;;;;;;0.75;0.63;;;;;;;;;;5078938;28;20596;-60
2022/06/07 14:13:42;;;;;;;0.68;0.68;;;;;;;;;;5082759;28;20202;-59
2022/06/07 14:16:13;;;;;;;0.40;0.40;;;;;;;;;;5083449;28;20241;-65
2022/06/07 14:18:42;;;;;;;0.35;0.35;;;;;;;;;;5087803;28;20214;-59
2022/06/07 14:21:09;;;;;;;2.28;0.47;;;;;;;;;;5082074;28;20258;-59
2022/06/07 14:23:37;;;;;;;1.85;0.38;;;;;;;;;;5087508;28;20256;-59
2022/06/07 14:26:04;;;;;;;0.30;0.30;;;;;;;;;;5086719;28;20206;-59
2022/06/07 14:28:31;;;;;;;0.50;0.50;;;;;;;;;;5086635;28;20213;-59
2022/06/07 14:30:59;;;;;;;0.30;0.30;;;;;;;;;;5086298;28;20237;-59
2022/06/07 14:33:27;;;;;;;0.40;0.40;;;;;;;;;;5086964;28;20291;-59
2022/06/07 14:35:54;;;;;;;0.38;0.38;;;;;;;;;;5086262;28;20236;-59
2022/06/07 14:38:23;;;;;;;0.30;0.30;;;;;;;;;;5087282;28;20234;-59
2022/06/07 14:40:51;;;;;;;0.40;0.40;;;;;;;;;;5086880;28;20203;-59
2022/06/07 14:43:21;;;;;;;0.40;0.40;;;;;;;;;;5086605;28;20249;-64
2022/06/07 14:45:50;;;;;;;0.35;0.35;;;;;;;;;;5075783;28;20744;-58
2022/06/07 14:48:36;;;;;;;0.22;0.22;;;;;;;;;;5066636;28;20264;-58
2022/06/07 14:51:07;;;;;;;3.83;0.40;;;;;;;;;;5078416;28;20214;-58
2022/06/07 14:53:34;;;;;;;0.30;0.30;;;;;;;;;;5085786;28;20221;-58
2022/06/07 14:56:02;;;;;;;0.30;0.30;;;;;;;;;;5086893;28;20230;-62
2022/06/07 14:58:29;;;;;;;0.22;0.22;;;;;;;;;;5086790;28;20550;-59
2022/06/07 15:00:56;;;;;;;0.30;0.30;;;;;;;;;;5086747;28;20209;-59
2022/06/07 15:03:24;;;;;;;0.40;0.40;;;;;;;;;;5083612;28;20202;-59
2022/06/07 15:05:53;;;;;;;0.43;0.43;;;;;;;;;;5086289;28;20199;-59
2022/06/07 15:08:21;;;;;;;0.85;0.63;;;;;;;;;;5086217;28;20248;-59
2022/06/07 15:10:48;;;;;;;2.55;0.40;;;;;;;;;;5082822;28;20218;-60
2022/06/07 15:13:19;;;;;;;0.40;0.40;;;;;;;;;;5085633;28;20213;-60
2022/06/07 15:15:46;;;;;;;0.50;0.50;;;;;;;;;;5086370;28;20321;-60
2022/06/07 15:18:15;;;;;;;0.40;0.40;;;;;;;;;;5074158;28;20213;-61
2022/06/07 15:20:43;;;;;;;0.40;0.40;;;;;;;;;;5085755;28;20218;-59
2022/06/07 15:23:14;;;;;;;0.65;0.45;;;;;;;;;;5072344;28;20297;-60